Time,TemperatureF,DewpointF,PressureIn,WindDirection,WindDirectionDegrees,WindSpeedMPH,WindSpeedGustMPH,Humidity,HourlyPrecipIn,Conditions,Clouds,dailyrainin,SoftwareType,DateUTC
2013-04-23 00:00:00,44.0,31.0,30.54,SSE,157,5.0,5.0,62,0.00,,,0.00,TxWx,2013-04-23 04:00:00,
2013-04-23 00:08:00,44.0,31.0,30.54,SE,135,3.0,3.0,62,0.00,,,0.00,TxWx,2013-04-23 04:08:00,
2013-04-23 00:13:00,44.0,31.0,30.54,SSE,157,3.0,3.0,62,0.00,,,0.00,TxWx,2013-04-23 04:13:00,
2013-04-23 00:18:00,44.0,31.0,30.54,SSE,157,4.0,4.0,62,0.00,,,0.00,TxWx,2013-04-23 04:18:00,
2013-04-23 00:24:00,44.0,31.0,30.54,ESE,112,4.0,6.0,63,0.00,,,0.00,TxWx,2013-04-23 04:24:00,
2013-04-23 00:29:00,44.0,31.0,30.54,ESE,112,5.0,5.0,63,0.00,,,0.00,TxWx,2013-04-23 04:29:00,
2013-04-23 00:34:00,43.0,30.0,30.54,SE,135,3.0,3.0,63,0.00,,,0.00,TxWx,2013-04-23 04:34:00,
2013-04-23 00:39:00,43.0,30.0,30.54,SSE,157,5.0,6.0,63,0.00,,,0.00,TxWx,2013-04-23 04:39:00,
2013-04-23 00:44:00,43.0,30.0,30.54,SSE,157,3.0,5.0,64,0.00,,,0.00,TxWx,2013-04-23 04:44:00,
2013-04-23 00:49:00,43.0,30.0,30.54,ESE,112,4.0,6.0,64,0.00,,,0.00,TxWx,2013-04-23 04:49:00,
2013-04-23 00:54:00,43.0,30.0,30.54,ESE,112,3.0,3.0,64,0.00,,,0.00,TxWx,2013-04-23 04:54:00,
2013-04-23 00:59:00,43.0,30.0,30.54,SSE,157,5.0,5.0,64,0.00,,,0.00,TxWx,2013-04-23 04:59:00,
2013-04-23 01:04:00,43.0,30.0,30.54,SSE,157,6.0,8.0,64,0.00,,,0.00,TxWx,2013-04-23 05:04:00,
2013-04-23 01:09:00,43.0,30.0,30.53,SSE,157,3.0,5.0,64,0.00,,,0.00,TxWx,2013-04-23 05:09:00,
2013-04-23 01:15:00,42.0,29.0,30.53,South,180,6.0,8.0,64,0.00,,,0.00,TxWx,2013-04-23 05:15:00,
2013-04-23 01:20:00,42.0,29.0,30.53,ESE,112,0.0,3.0,64,0.00,,,0.00,TxWx,2013-04-23 05:20:00,
2013-04-23 01:25:00,42.0,29.0,30.53,ESE,112,4.0,6.0,64,0.00,,,0.00,TxWx,2013-04-23 05:25:00,
2013-04-23 01:30:00,42.0,29.0,30.53,ESE,112,2.0,3.0,64,0.00,,,0.00,TxWx,2013-04-23 05:30:00,
2013-04-23 01:35:00,42.0,30.0,30.52,SSE,157,5.0,7.0,64,0.00,,,0.00,TxWx,2013-04-23 05:35:00,
2013-04-23 01:40:00,42.0,30.0,30.52,South,180,3.0,5.0,64,0.00,,,0.00,TxWx,2013-04-23 05:40:00,
2013-04-23 01:45:00,42.0,30.0,30.52,SE,135,3.0,4.0,65,0.00,,,0.00,TxWx,2013-04-23 05:45:00,
2013-04-23 01:50:00,42.0,30.0,30.52,SSE,157,3.0,5.0,65,0.00,,,0.00,TxWx,2013-04-23 05:50:00,
2013-04-23 01:55:00,42.0,30.0,30.51,ESE,112,2.0,2.0,65,0.00,,,0.00,TxWx,2013-04-23 05:55:00,
2013-04-23 02:00:00,41.0,30.0,30.51,ESE,112,6.0,6.0,65,0.00,,,0.00,TxWx,2013-04-23 06:00:00,
2013-04-23 02:05:00,41.0,29.0,30.51,ESE,112,3.0,3.0,65,0.00,,,0.00,TxWx,2013-04-23 06:05:00,
2013-04-23 02:10:00,41.0,29.0,30.51,SSE,157,5.0,7.0,65,0.00,,,0.00,TxWx,2013-04-23 06:10:00,
2013-04-23 02:16:00,41.0,29.0,30.51,ESE,112,3.0,3.0,65,0.00,,,0.00,TxWx,2013-04-23 06:16:00,
2013-04-23 02:22:00,41.0,29.0,30.50,SSE,157,2.0,3.0,66,0.00,,,0.00,TxWx,2013-04-23 06:22:00,
2013-04-23 02:28:00,41.0,29.0,30.50,ESE,112,0.0,0.0,66,0.00,,,0.00,TxWx,2013-04-23 06:28:00,
2013-04-23 02:33:00,41.0,30.0,30.50,SE,135,0.0,1.0,66,0.00,,,0.00,TxWx,2013-04-23 06:33:00,
2013-04-23 02:38:00,40.0,29.0,30.50,NE,45,0.0,0.0,67,0.00,,,0.00,TxWx,2013-04-23 06:38:00,
2013-04-23 02:43:00,40.0,29.0,30.50,ENE,67,0.0,1.0,67,0.00,,,0.00,TxWx,2013-04-23 06:43:00,
2013-04-23 02:48:00,40.0,29.0,30.50,ENE,67,0.0,0.0,68,0.00,,,0.00,TxWx,2013-04-23 06:48:00,
2013-04-23 02:53:00,40.0,29.0,30.50,ESE,112,0.0,0.0,69,0.00,,,0.00,TxWx,2013-04-23 06:53:00,
2013-04-23 02:59:00,39.0,29.0,30.50,ESE,112,0.0,0.0,69,0.00,,,0.00,TxWx,2013-04-23 06:59:00,
2013-04-23 03:04:00,39.0,29.0,30.50,East,90,0.0,0.0,70,0.00,,,0.00,TxWx,2013-04-23 07:04:00,
2013-04-23 03:09:00,39.0,29.0,30.50,SE,135,0.0,0.0,70,0.00,,,0.00,TxWx,2013-04-23 07:09:00,
2013-04-23 03:14:00,39.0,29.0,30.50,SSE,157,0.0,0.0,71,0.00,,,0.00,TxWx,2013-04-23 07:14:00,
2013-04-23 03:19:00,38.0,28.0,30.50,NNE,22,0.0,0.0,71,0.00,,,0.00,TxWx,2013-04-23 07:19:00,
2013-04-23 03:24:00,38.0,29.0,30.50,NNW,337,0.0,0.0,72,0.00,,,0.00,TxWx,2013-04-23 07:24:00,
2013-04-23 03:29:00,38.0,29.0,30.50,ESE,112,0.0,0.0,72,0.00,,,0.00,TxWx,2013-04-23 07:29:00,
2013-04-23 03:34:00,38.0,29.0,30.50,SE,135,0.0,0.0,73,0.00,,,0.00,TxWx,2013-04-23 07:34:00,
2013-04-23 03:39:00,38.0,29.0,30.49,ENE,67,0.0,0.0,73,0.00,,,0.00,TxWx,2013-04-23 07:39:00,
2013-04-23 03:44:00,37.0,28.0,30.49,SE,135,0.0,0.0,74,0.00,,,0.00,TxWx,2013-04-23 07:44:00,
2013-04-23 03:49:00,37.0,28.0,30.49,ESE,112,0.0,0.0,74,0.00,,,0.00,TxWx,2013-04-23 07:49:00,
2013-04-23 03:54:00,37.0,28.0,30.49,SE,135,0.0,0.0,74,0.00,,,0.00,TxWx,2013-04-23 07:54:00,
2013-04-23 03:59:00,37.0,28.0,30.49,ESE,112,0.0,0.0,74,0.00,,,0.00,TxWx,2013-04-23 07:59:00,
2013-04-23 04:04:00,37.0,29.0,30.49,NE,45,0.0,0.0,75,0.00,,,0.00,TxWx,2013-04-23 08:04:00,
2013-04-23 04:09:00,36.0,28.0,30.49,NE,45,0.0,0.0,75,0.00,,,0.00,TxWx,2013-04-23 08:09:00,
2013-04-23 04:15:00,36.0,28.0,30.49,ENE,67,0.0,0.0,77,0.00,,,0.00,TxWx,2013-04-23 08:15:00,
2013-04-23 04:20:00,36.0,28.0,30.49,SE,135,0.0,0.0,77,0.00,,,0.00,TxWx,2013-04-23 08:20:00,
2013-04-23 04:25:00,36.0,29.0,30.49,South,180,0.0,0.0,78,0.00,,,0.00,TxWx,2013-04-23 08:25:00,
2013-04-23 04:30:00,35.0,28.0,30.49,NNE,22,0.0,0.0,78,0.00,,,0.00,TxWx,2013-04-23 08:30:00,
2013-04-23 04:35:00,35.0,28.0,30.49,ENE,67,0.0,0.0,79,0.00,,,0.00,TxWx,2013-04-23 08:35:00,
2013-04-23 04:40:00,35.0,28.0,30.49,ENE,67,0.0,0.0,80,0.00,,,0.00,TxWx,2013-04-23 08:40:00,
2013-04-23 04:45:00,35.0,29.0,30.49,ENE,67,0.0,0.0,81,0.00,,,0.00,TxWx,2013-04-23 08:45:00,
2013-04-23 04:50:00,35.0,29.0,30.49,ENE,67,0.0,0.0,82,0.00,,,0.00,TxWx,2013-04-23 08:50:00,
2013-04-23 04:55:00,34.0,28.0,30.49,NW,315,0.0,0.0,83,0.00,,,0.00,TxWx,2013-04-23 08:55:00,
2013-04-23 05:00:00,34.0,28.0,30.49,ENE,67,0.0,0.0,83,0.00,,,0.00,TxWx,2013-04-23 09:00:00,
2013-04-23 05:05:00,34.0,29.0,30.49,SSE,157,0.0,0.0,84,0.00,,,0.00,TxWx,2013-04-23 09:05:00,
2013-04-23 05:10:00,34.0,29.0,30.49,ESE,112,0.0,0.0,84,0.00,,,0.00,TxWx,2013-04-23 09:10:00,
2013-04-23 05:15:00,34.0,29.0,30.49,ENE,67,0.0,0.0,85,0.00,,,0.00,TxWx,2013-04-23 09:15:00,
2013-04-23 05:20:00,34.0,29.0,30.49,WSW,247,0.0,0.0,85,0.00,,,0.00,TxWx,2013-04-23 09:20:00,
2013-04-23 05:25:00,33.0,28.0,30.49,South,180,0.0,0.0,85,0.00,,,0.00,TxWx,2013-04-23 09:25:00,
2013-04-23 05:30:00,33.0,28.0,30.49,SSE,157,0.0,0.0,86,0.00,,,0.00,TxWx,2013-04-23 09:30:00,
2013-04-23 05:36:00,33.0,28.0,30.49,North,0,0.0,0.0,86,0.00,,,0.00,TxWx,2013-04-23 09:36:00,
2013-04-23 05:41:00,33.0,28.0,30.49,SW,225,0.0,0.0,86,0.00,,,0.00,TxWx,2013-04-23 09:41:00,
2013-04-23 05:46:00,33.0,28.0,30.49,SSE,157,0.0,0.0,86,0.00,,,0.00,TxWx,2013-04-23 09:46:00,
2013-04-23 05:51:00,33.0,28.0,30.49,SE,135,0.0,0.0,86,0.00,,,0.00,TxWx,2013-04-23 09:51:00,
2013-04-23 05:56:00,32.0,27.0,30.49,South,180,0.0,0.0,87,0.00,,,0.00,TxWx,2013-04-23 09:56:00,
2013-04-23 06:00:00,51.0,40.0,30.30,ENE,67,6.0,8.0,66,0.00,,,0.00,TxWx,2013-04-23 10:00:00,
2013-04-23 06:01:00,32.0,27.0,30.49,SSE,157,0.0,0.0,87,0.00,,,0.00,TxWx,2013-04-23 10:01:00,
2013-04-23 06:02:00,51.0,40.0,30.29,East,90,4.0,5.0,66,0.00,,,0.00,TxWx,2013-04-23 10:02:00,
2013-04-23 06:03:00,51.0,40.0,30.29,ENE,67,1.0,2.0,66,0.00,,,0.00,TxWx,2013-04-23 10:03:00,
2013-04-23 06:04:00,51.0,40.0,30.29,NE,45,8.0,8.0,66,0.00,,,0.00,TxWx,2013-04-23 10:04:00,
2013-04-23 06:05:00,51.0,40.0,30.29,NE,45,5.0,6.0,66,0.00,,,0.00,TxWx,2013-04-23 10:05:00,
2013-04-23 06:06:00,32.0,28.0,30.49,SSW,202,0.0,0.0,87,0.00,,,0.00,TxWx,2013-04-23 10:06:00,
2013-04-23 06:11:00,32.0,28.0,30.49,NNW,337,0.0,0.0,87,0.00,,,0.00,TxWx,2013-04-23 10:11:00,
2013-04-23 06:16:00,32.0,28.0,30.49,NE,45,0.0,0.0,87,0.00,,,0.00,TxWx,2013-04-23 10:16:00,
2013-04-23 06:21:00,32.0,28.0,30.49,East,90,0.0,0.0,87,0.00,,,0.00,TxWx,2013-04-23 10:21:00,
2013-04-23 06:26:00,32.0,28.0,30.49,ESE,112,0.0,0.0,88,0.00,,,0.00,TxWx,2013-04-23 10:26:00,
2013-04-23 06:31:00,32.0,28.0,30.49,NW,315,0.0,0.0,88,0.00,,,0.00,TxWx,2013-04-23 10:31:00,
2013-04-23 06:36:00,32.0,28.0,30.49,NE,45,0.0,0.0,88,0.00,,,0.00,TxWx,2013-04-23 10:36:00,
2013-04-23 06:41:00,33.0,29.0,30.49,ENE,67,0.0,0.0,88,0.00,,,0.00,TxWx,2013-04-23 10:41:00,
2013-04-23 06:47:00,33.0,29.0,30.49,ENE,67,0.0,0.0,89,0.00,,,0.00,TxWx,2013-04-23 10:47:00,
2013-04-23 06:52:00,34.0,30.0,30.49,NE,45,0.0,0.0,89,0.00,,,0.00,TxWx,2013-04-23 10:52:00,
2013-04-23 06:57:00,34.0,30.0,30.49,NE,45,0.0,0.0,89,0.00,,,0.00,TxWx,2013-04-23 10:57:00,
2013-04-23 07:02:00,34.0,30.0,30.49,NE,45,2.0,3.0,89,0.00,,,0.00,TxWx,2013-04-23 11:02:00,
2013-04-23 07:07:00,34.0,30.0,30.49,NE,45,0.0,0.0,89,0.00,,,0.00,TxWx,2013-04-23 11:07:00,
2013-04-23 07:12:00,35.0,32.0,30.49,East,90,0.0,0.0,90,0.00,,,0.00,TxWx,2013-04-23 11:12:00,
2013-04-23 07:17:00,36.0,33.0,30.49,ENE,67,0.0,0.0,90,0.00,,,0.00,TxWx,2013-04-23 11:17:00,
2013-04-23 07:22:00,36.0,33.0,30.49,NE,45,2.0,2.0,90,0.00,,,0.00,TxWx,2013-04-23 11:22:00,
2013-04-23 07:27:00,37.0,34.0,30.48,ENE,67,0.0,1.0,89,0.00,,,0.00,TxWx,2013-04-23 11:27:00,
2013-04-23 07:32:00,37.0,34.0,30.48,NE,45,4.0,4.0,88,0.00,,,0.00,TxWx,2013-04-23 11:32:00,
2013-04-23 07:37:00,37.0,33.0,30.48,ENE,67,1.0,2.0,87,0.00,,,0.00,TxWx,2013-04-23 11:37:00,
2013-04-23 07:42:00,38.0,34.0,30.48,North,0,4.0,4.0,85,0.00,,,0.00,TxWx,2013-04-23 11:42:00,
2013-04-23 07:47:00,38.0,33.0,30.48,NE,45,3.0,3.0,84,0.00,,,0.00,TxWx,2013-04-23 11:47:00,
2013-04-23 07:53:00,38.0,33.0,30.48,NE,45,0.0,0.0,82,0.00,,,0.00,TxWx,2013-04-23 11:53:00,
2013-04-23 07:58:00,39.0,34.0,30.48,NE,45,4.0,4.0,81,0.00,,,0.00,TxWx,2013-04-23 11:58:00,
2013-04-23 08:03:00,39.0,34.0,30.48,NE,45,1.0,1.0,79,0.00,,,0.00,TxWx,2013-04-23 12:03:00,
2013-04-23 08:08:00,40.0,33.0,30.48,North,0,4.0,6.0,77,0.00,,,0.00,TxWx,2013-04-23 12:08:00,
2013-04-23 08:13:00,40.0,33.0,30.47,NE,45,0.0,3.0,75,0.00,,,0.00,TxWx,2013-04-23 12:13:00,
2013-04-23 08:18:00,40.0,32.0,30.47,NNE,22,4.0,5.0,74,0.00,,,0.00,TxWx,2013-04-23 12:18:00,
2013-04-23 08:23:00,40.0,32.0,30.47,NNW,337,2.0,3.0,73,0.00,,,0.00,TxWx,2013-04-23 12:23:00,
2013-04-23 08:28:00,40.0,31.0,30.47,NE,45,4.0,5.0,72,0.00,,,0.00,TxWx,2013-04-23 12:28:00,
2013-04-23 08:33:00,40.0,31.0,30.47,ENE,67,5.0,5.0,72,0.00,,,0.00,TxWx,2013-04-23 12:33:00,
2013-04-23 08:38:00,41.0,32.0,30.47,NNE,22,2.0,3.0,71,0.00,,,0.00,TxWx,2013-04-23 12:38:00,
2013-04-23 08:43:00,41.0,31.0,30.46,NE,45,5.0,6.0,70,0.00,,,0.00,TxWx,2013-04-23 12:43:00,
2013-04-23 08:48:00,41.0,30.0,30.46,NNE,22,2.0,5.0,69,0.00,,,0.00,TxWx,2013-04-23 12:48:00,
2013-04-23 08:53:00,41.0,30.0,30.46,NNE,22,3.0,4.0,68,0.00,,,0.00,TxWx,2013-04-23 12:53:00,
2013-04-23 08:59:00,41.0,30.0,30.46,ENE,67,3.0,4.0,68,0.00,,,0.00,TxWx,2013-04-23 12:59:00,
2013-04-23 09:04:00,41.0,30.0,30.45,ENE,67,2.0,3.0,68,0.00,,,0.00,TxWx,2013-04-23 13:04:00,
2013-04-23 09:09:00,42.0,32.0,30.45,SSE,157,1.0,1.0,68,0.00,,,0.00,TxWx,2013-04-23 13:09:00,
2013-04-23 09:14:00,42.0,31.0,30.45,North,0,3.0,3.0,67,0.00,,,0.00,TxWx,2013-04-23 13:14:00,
2013-04-23 09:19:00,42.0,31.0,30.45,North,0,2.0,4.0,67,0.00,,,0.00,TxWx,2013-04-23 13:19:00,
2013-04-23 09:24:00,43.0,32.0,30.44,ENE,67,0.0,1.0,66,0.00,,,0.00,TxWx,2013-04-23 13:24:00,
2013-04-23 09:29:00,43.0,32.0,30.44,ESE,112,4.0,5.0,66,0.00,,,0.00,TxWx,2013-04-23 13:29:00,
2013-04-23 09:34:00,43.0,32.0,30.43,SE,135,0.0,1.0,65,0.00,,,0.00,TxWx,2013-04-23 13:34:00,
2013-04-23 09:39:00,43.0,32.0,30.43,SSE,157,0.0,1.0,65,0.00,,,0.00,TxWx,2013-04-23 13:39:00,
2013-04-23 09:44:00,44.0,33.0,30.43,SSW,202,3.0,3.0,65,0.00,,,0.00,TxWx,2013-04-23 13:44:00,
2013-04-23 09:49:00,44.0,33.0,30.43,South,180,3.0,3.0,64,0.00,,,0.00,TxWx,2013-04-23 13:49:00,
2013-04-23 09:54:00,44.0,32.0,30.43,ESE,112,0.0,1.0,64,0.00,,,0.00,TxWx,2013-04-23 13:54:00,
2013-04-23 09:59:00,44.0,32.0,30.43,NE,45,2.0,2.0,64,0.00,,,0.00,TxWx,2013-04-23 13:59:00,
2013-04-23 10:04:00,44.0,32.0,30.42,West,270,0.0,1.0,63,0.00,,,0.00,TxWx,2013-04-23 14:04:00,
2013-04-23 10:10:00,44.0,32.0,30.42,SSW,202,5.0,5.0,63,0.00,,,0.00,TxWx,2013-04-23 14:10:00,
2013-04-23 10:15:00,43.0,30.0,30.43,WSW,247,2.0,3.0,63,0.00,,,0.00,TxWx,2013-04-23 14:15:00,
2013-04-23 10:20:00,44.0,32.0,30.42,SSE,157,1.0,2.0,64,0.00,,,0.00,TxWx,2013-04-23 14:20:00,
2013-04-23 10:25:00,44.0,32.0,30.43,SSE,157,4.0,5.0,64,0.00,,,0.00,TxWx,2013-04-23 14:25:00,
2013-04-23 10:30:00,44.0,32.0,30.43,SW,225,3.0,4.0,64,0.00,,,0.00,TxWx,2013-04-23 14:30:00,
2013-04-23 10:35:00,44.0,32.0,30.42,South,180,3.0,3.0,64,0.00,,,0.00,TxWx,2013-04-23 14:35:00,
2013-04-23 10:40:00,44.0,32.0,30.42,SE,135,3.0,3.0,63,0.00,,,0.00,TxWx,2013-04-23 14:40:00,
2013-04-23 10:45:00,44.0,32.0,30.42,SSW,202,2.0,3.0,64,0.00,,,0.00,TxWx,2013-04-23 14:45:00,
2013-04-23 10:50:00,44.0,32.0,30.42,South,180,3.0,5.0,64,0.00,,,0.00,TxWx,2013-04-23 14:50:00,
2013-04-23 10:55:00,44.0,32.0,30.42,South,180,1.0,2.0,64,0.00,,,0.00,TxWx,2013-04-23 14:55:00,
2013-04-23 11:01:00,44.0,32.0,30.42,West,270,4.0,5.0,64,0.00,,,0.00,TxWx,2013-04-23 15:01:00,
2013-04-23 11:06:00,44.0,32.0,30.41,ENE,67,0.0,0.0,64,0.00,,,0.00,TxWx,2013-04-23 15:06:00,
2013-04-23 11:11:00,45.0,33.0,30.41,South,180,4.0,5.0,63,0.00,,,0.00,TxWx,2013-04-23 15:11:00,
2013-04-23 11:16:00,44.0,32.0,30.41,South,180,5.0,6.0,63,0.00,,,0.00,TxWx,2013-04-23 15:16:00,
2013-04-23 11:21:00,44.0,32.0,30.41,SSE,157,6.0,6.0,64,0.00,,,0.00,TxWx,2013-04-23 15:21:00,
2013-04-23 11:26:00,45.0,33.0,30.40,SSE,157,0.0,1.0,64,0.00,,,0.00,TxWx,2013-04-23 15:26:00,
2013-04-23 11:31:00,45.0,33.0,30.40,NE,45,0.0,1.0,63,0.00,,,0.00,TxWx,2013-04-23 15:31:00,
2013-04-23 11:36:00,46.0,34.0,30.40,ESE,112,1.0,2.0,63,0.00,,,0.00,TxWx,2013-04-23 15:36:00,
2013-04-23 11:41:00,46.0,34.0,30.39,NNE,22,0.0,0.0,63,0.00,,,0.00,TxWx,2013-04-23 15:41:00,
2013-04-23 11:46:00,46.0,34.0,30.39,SSW,202,1.0,3.0,62,0.00,,,0.00,TxWx,2013-04-23 15:46:00,
2013-04-23 11:51:00,47.0,35.0,30.39,SE,135,0.0,1.0,62,0.00,,,0.00,TxWx,2013-04-23 15:51:00,
2013-04-23 11:56:00,47.0,35.0,30.38,NNW,337,2.0,4.0,62,0.00,,,0.00,TxWx,2013-04-23 15:56:00,
2013-04-23 12:02:00,47.0,34.0,30.38,ENE,67,1.0,2.0,61,0.00,,,0.00,TxWx,2013-04-23 16:02:00,
2013-04-23 12:07:00,47.0,34.0,30.38,SSE,157,4.0,4.0,61,0.00,,,0.00,TxWx,2013-04-23 16:07:00,
2013-04-23 12:12:00,47.0,35.0,30.38,ESE,112,4.0,4.0,62,0.00,,,0.00,TxWx,2013-04-23 16:12:00,
2013-04-23 12:17:00,47.0,35.0,30.37,NNW,337,3.0,4.0,63,0.00,,,0.00,TxWx,2013-04-23 16:17:00,
2013-04-23 12:22:00,47.0,35.0,30.37,NNE,22,4.0,5.0,63,0.00,,,0.00,TxWx,2013-04-23 16:22:00,
2013-04-23 12:27:00,47.0,35.0,30.37,East,90,3.0,3.0,63,0.00,,,0.00,TxWx,2013-04-23 16:27:00,
2013-04-23 12:32:00,48.0,36.0,30.36,SSE,157,2.0,2.0,63,0.00,,,0.00,TxWx,2013-04-23 16:32:00,
2013-04-23 12:37:00,47.0,35.0,30.36,South,180,3.0,3.0,63,0.00,,,0.00,TxWx,2013-04-23 16:37:00,
2013-04-23 12:42:00,47.0,35.0,30.36,SSE,157,4.0,5.0,63,0.00,,,0.00,TxWx,2013-04-23 16:42:00,
2013-04-23 12:47:00,47.0,35.0,30.36,SW,225,3.0,4.0,64,0.00,,,0.00,TxWx,2013-04-23 16:47:00,
2013-04-23 12:52:00,48.0,36.0,30.35,SSE,157,3.0,3.0,64,0.00,,,0.00,TxWx,2013-04-23 16:52:00,
2013-04-23 12:57:00,48.0,37.0,30.35,SE,135,2.0,3.0,65,0.00,,,0.00,TxWx,2013-04-23 16:57:00,
2013-04-23 13:02:00,48.0,37.0,30.36,South,180,4.0,5.0,65,0.00,,,0.00,TxWx,2013-04-23 17:02:00,
2013-04-23 13:08:00,47.0,36.0,30.35,SSE,157,3.0,3.0,65,0.00,,,0.00,TxWx,2013-04-23 17:08:00,
2013-04-23 13:13:00,47.0,36.0,30.35,West,270,3.0,3.0,66,0.00,,,0.00,TxWx,2013-04-23 17:13:00,
2013-04-23 13:18:00,47.0,36.0,30.35,SW,225,1.0,3.0,66,0.00,,,0.00,TxWx,2013-04-23 17:18:00,
2013-04-23 13:23:00,48.0,37.0,30.35,SSE,157,4.0,4.0,67,0.00,,,0.00,TxWx,2013-04-23 17:23:00,
2013-04-23 13:28:00,48.0,38.0,30.35,South,180,4.0,4.0,68,0.00,,,0.00,TxWx,2013-04-23 17:28:00,
2013-04-23 13:33:00,47.0,37.0,30.35,ESE,112,5.0,6.0,69,0.00,,,0.00,TxWx,2013-04-23 17:33:00,
2013-04-23 13:38:00,47.0,38.0,30.34,East,90,2.0,2.0,71,0.00,,,0.00,TxWx,2013-04-23 17:38:00,
2013-04-23 13:43:00,47.0,38.0,30.34,ESE,112,6.0,6.0,72,0.00,,,0.00,TxWx,2013-04-23 17:43:00,
2013-04-23 13:48:00,47.0,38.0,30.34,East,90,5.0,6.0,72,0.00,,,0.00,TxWx,2013-04-23 17:48:00,
2013-04-23 13:53:00,47.0,39.0,30.34,East,90,4.0,5.0,74,0.00,,,0.00,TxWx,2013-04-23 17:53:00,
2013-04-23 13:58:00,47.0,39.0,30.34,SSE,157,3.0,4.0,74,0.00,,,0.00,TxWx,2013-04-23 17:58:00,
2013-04-23 14:03:00,47.0,39.0,30.33,SE,135,3.0,3.0,74,0.00,,,0.00,TxWx,2013-04-23 18:03:00,
2013-04-23 14:08:00,47.0,39.0,30.33,ENE,67,5.0,5.0,74,0.00,,,0.00,TxWx,2013-04-23 18:08:00,
2013-04-23 14:13:00,48.0,40.0,30.33,ESE,112,2.0,3.0,74,0.00,,,0.00,TxWx,2013-04-23 18:13:00,
2013-04-23 14:19:00,48.0,40.0,30.32,SE,135,1.0,1.0,73,0.00,,,0.00,TxWx,2013-04-23 18:19:00,
2013-04-23 14:24:00,49.0,40.0,30.32,ENE,67,5.0,5.0,72,0.00,,,0.00,TxWx,2013-04-23 18:24:00,
2013-04-23 14:29:00,50.0,41.0,30.31,East,90,0.0,1.0,71,0.00,,,0.00,TxWx,2013-04-23 18:29:00,
2013-04-23 14:34:00,50.0,40.0,30.31,SSE,157,5.0,5.0,69,0.00,,,0.00,TxWx,2013-04-23 18:34:00,
2013-04-23 14:39:00,50.0,40.0,30.31,NE,45,2.0,3.0,68,0.00,,,0.00,TxWx,2013-04-23 18:39:00,
2013-04-23 14:44:00,51.0,41.0,30.30,NNE,22,3.0,3.0,68,0.00,,,0.00,TxWx,2013-04-23 18:44:00,
2013-04-23 14:45:00,45.0,40.0,30.14,East,90,0.0,1.0,82,0.00,,,0.00,TxWx,2013-04-23 18:45:00,
2013-04-23 14:46:00,45.0,40.0,30.14,East,90,0.0,1.0,82,0.00,,,0.00,TxWx,2013-04-23 18:46:00,
2013-04-23 14:47:00,45.0,40.0,30.14,East,90,0.0,1.0,82,0.00,,,0.00,TxWx,2013-04-23 18:47:00,
2013-04-23 14:48:00,45.0,40.0,30.14,ENE,67,0.0,1.0,82,0.00,,,0.00,TxWx,2013-04-23 18:48:00,
2013-04-23 14:49:00,51.0,40.0,30.30,NE,45,4.0,5.0,66,0.00,,,0.00,TxWx,2013-04-23 18:49:00,
2013-04-23 14:50:00,45.0,40.0,30.14,East,90,0.0,0.0,82,0.00,,,0.00,TxWx,2013-04-23 18:50:00,
2013-04-23 14:54:00,50.0,39.0,30.30,NE,45,5.0,6.0,67,0.00,,,0.00,TxWx,2013-04-23 18:54:00,
2013-04-23 14:59:00,51.0,40.0,30.30,ENE,67,6.0,8.0,67,0.00,,,0.00,TxWx,2013-04-23 18:59:00,
2013-04-23 15:01:00,44.0,39.0,30.14,ESE,112,0.0,0.0,84,0.00,,,0.00,TxWx,2013-04-23 19:01:00,
2013-04-23 15:02:00,44.0,39.0,30.14,South,180,0.0,0.0,84,0.00,,,0.00,TxWx,2013-04-23 19:02:00,
2013-04-23 15:03:00,44.0,39.0,30.14,South,180,1.0,1.0,84,0.00,,,0.00,TxWx,2013-04-23 19:03:00,
2013-04-23 15:04:00,44.0,39.0,30.14,South,180,0.0,0.0,84,0.00,,,0.00,TxWx,2013-04-23 19:04:00,
2013-04-23 15:05:00,51.0,40.0,30.29,NE,45,3.0,5.0,66,0.00,,,0.00,TxWx,2013-04-23 19:05:00,
2013-04-23 15:10:00,51.0,40.0,30.29,ENE,67,0.0,1.0,66,0.00,,,0.00,TxWx,2013-04-23 19:10:00,
2013-04-23 15:15:00,52.0,41.0,30.29,East,90,0.0,1.0,66,0.00,,,0.00,TxWx,2013-04-23 19:15:00,
2013-04-23 15:20:00,52.0,40.0,30.28,SSE,157,0.0,1.0,65,0.00,,,0.00,TxWx,2013-04-23 19:20:00,
2013-04-23 15:25:00,52.0,40.0,30.28,North,0,3.0,6.0,65,0.00,,,0.00,TxWx,2013-04-23 19:25:00,
2013-04-23 15:29:00,43.0,39.0,30.14,NE,45,0.0,0.0,86,0.00,,,0.00,TxWx,2013-04-23 19:29:00,
2013-04-23 15:30:00,53.0,41.0,30.28,NNE,22,4.0,5.0,64,0.00,,,0.00,TxWx,2013-04-23 19:30:00,
2013-04-23 15:31:00,43.0,39.0,30.14,ENE,67,0.0,0.0,86,0.00,,,0.00,TxWx,2013-04-23 19:31:00,
2013-04-23 15:32:00,43.0,39.0,30.14,ENE,67,0.0,1.0,86,0.00,,,0.00,TxWx,2013-04-23 19:32:00,
2013-04-23 15:33:00,43.0,39.0,30.14,ENE,67,1.0,1.0,87,0.00,,,0.00,TxWx,2013-04-23 19:33:00,
2013-04-23 15:35:00,53.0,41.0,30.27,East,90,3.0,3.0,63,0.00,,,0.00,TxWx,2013-04-23 19:35:00,
2013-04-23 15:37:00,43.0,39.0,30.13,ENE,67,0.0,0.0,87,0.00,,,0.00,TxWx,2013-04-23 19:37:00,
2013-04-23 15:38:00,43.0,39.0,30.13,ENE,67,0.0,0.0,87,0.00,,,0.00,TxWx,2013-04-23 19:38:00,
2013-04-23 15:39:00,43.0,39.0,30.13,ENE,67,0.0,0.0,87,0.00,,,0.00,TxWx,2013-04-23 19:39:00,
2013-04-23 15:40:00,53.0,40.0,30.27,ESE,112,1.0,3.0,62,0.00,,,0.00,TxWx,2013-04-23 19:40:00,
2013-04-23 15:44:00,42.0,39.0,30.13,ENE,67,0.0,0.0,88,0.00,,,0.00,TxWx,2013-04-23 19:44:00,
2013-04-23 15:45:00,54.0,41.0,30.27,ESE,112,0.0,1.0,63,0.00,,,0.00,TxWx,2013-04-23 19:45:00,
2013-04-23 15:50:00,54.0,41.0,30.27,South,180,10.0,11.0,61,0.00,,,0.00,TxWx,2013-04-23 19:50:00,
2013-04-23 15:52:00,42.0,39.0,30.13,NNW,337,0.0,1.0,88,0.00,,,0.00,TxWx,2013-04-23 19:52:00,
2013-04-23 15:53:00,42.0,39.0,30.13,WSW,247,0.0,1.0,88,0.00,,,0.00,TxWx,2013-04-23 19:53:00,
2013-04-23 15:54:00,42.0,39.0,30.13,WSW,247,0.0,1.0,88,0.00,,,0.00,TxWx,2013-04-23 19:54:00,
2013-04-23 15:55:00,42.0,39.0,30.13,WSW,247,0.0,1.0,88,0.00,,,0.00,TxWx,2013-04-23 19:55:00,
2013-04-23 15:56:00,54.0,41.0,30.26,NNE,22,4.0,4.0,62,0.00,,,0.00,TxWx,2013-04-23 19:56:00,
2013-04-23 15:57:00,42.0,39.0,30.12,WSW,247,0.0,0.0,89,0.00,,,0.00,TxWx,2013-04-23 19:57:00,
2013-04-23 15:58:00,42.0,39.0,30.12,WSW,247,0.0,0.0,89,0.00,,,0.00,TxWx,2013-04-23 19:58:00,
2013-04-23 16:01:00,54.0,41.0,30.26,SSE,157,3.0,5.0,61,0.00,,,0.00,TxWx,2013-04-23 20:01:00,
2013-04-23 16:06:00,54.0,40.0,30.26,SE,135,6.0,8.0,60,0.00,,,0.00,TxWx,2013-04-23 20:06:00,
2013-04-23 16:11:00,54.0,40.0,30.25,ENE,67,8.0,8.0,58,0.00,,,0.00,TxWx,2013-04-23 20:11:00,
2013-04-23 16:16:00,54.0,40.0,30.25,NE,45,3.0,5.0,58,0.00,,,0.00,TxWx,2013-04-23 20:16:00,
2013-04-23 16:21:00,54.0,40.0,30.25,ESE,112,13.0,13.0,59,0.00,,,0.00,TxWx,2013-04-23 20:21:00,
2013-04-23 16:26:00,54.0,40.0,30.25,ESE,112,9.0,9.0,59,0.00,,,0.00,TxWx,2013-04-23 20:26:00,
2013-04-23 16:31:00,54.0,40.0,30.25,East,90,6.0,8.0,59,0.00,,,0.00,TxWx,2013-04-23 20:31:00,
2013-04-23 16:36:00,54.0,40.0,30.25,SE,135,3.0,5.0,58,0.00,,,0.00,TxWx,2013-04-23 20:36:00,
2013-04-23 16:41:00,55.0,40.0,30.25,ESE,112,3.0,4.0,58,0.00,,,0.00,TxWx,2013-04-23 20:41:00,
2013-04-23 16:46:00,55.0,39.0,30.25,ESE,112,10.0,10.0,56,0.00,,,0.00,TxWx,2013-04-23 20:46:00,
2013-04-23 16:51:00,55.0,40.0,30.25,ENE,67,5.0,8.0,56,0.00,,,0.00,TxWx,2013-04-23 20:51:00,
2013-04-23 16:56:00,54.0,39.0,30.25,ESE,112,10.0,11.0,57,0.00,,,0.00,TxWx,2013-04-23 20:56:00,
2013-04-23 17:02:00,54.0,39.0,30.25,East,90,6.0,6.0,57,0.00,,,0.00,TxWx,2013-04-23 21:02:00,
2013-04-23 17:03:00,41.0,39.0,30.09,WSW,247,3.0,3.0,93,0.00,,,0.00,TxWx,2013-04-23 21:03:00,
2013-04-23 17:07:00,54.0,40.0,30.26,SSE,157,6.0,7.0,58,0.00,,,0.00,TxWx,2013-04-23 21:07:00,
2013-04-23 17:08:00,41.0,39.0,30.09,WSW,247,3.0,4.0,94,0.00,,,0.00,TxWx,2013-04-23 21:08:00,
2013-04-23 17:09:00,41.0,39.0,30.09,West,270,3.0,3.0,94,0.00,,,0.00,TxWx,2013-04-23 21:09:00,
2013-04-23 17:10:00,41.0,39.0,30.09,SW,225,1.0,3.0,94,0.00,,,0.00,TxWx,2013-04-23 21:10:00,
2013-04-23 17:11:00,41.0,39.0,30.09,SSW,202,2.0,3.0,94,0.00,,,0.00,TxWx,2013-04-23 21:11:00,
2013-04-23 17:12:00,54.0,40.0,30.26,SE,135,7.0,8.0,58,0.00,,,0.00,TxWx,2013-04-23 21:12:00,
2013-04-23 17:13:00,41.0,39.0,30.09,SE,135,1.0,1.0,94,0.00,,,0.00,TxWx,2013-04-23 21:13:00,
2013-04-23 17:14:00,41.0,39.0,30.09,SW,225,0.0,0.0,94,0.00,,,0.00,TxWx,2013-04-23 21:14:00,
2013-04-23 17:15:00,41.0,39.0,30.09,WSW,247,3.0,3.0,94,0.00,,,0.00,TxWx,2013-04-23 21:15:00,
2013-04-23 17:17:00,54.0,40.0,30.26,ESE,112,6.0,9.0,59,0.00,,,0.00,TxWx,2013-04-23 21:17:00,
2013-04-23 17:18:00,40.0,38.0,30.09,SW,225,3.0,3.0,94,0.00,,,0.00,TxWx,2013-04-23 21:18:00,
2013-04-23 17:22:00,54.0,40.0,30.26,SE,135,5.0,8.0,60,0.00,,,0.00,TxWx,2013-04-23 21:22:00,
2013-04-23 17:27:00,53.0,40.0,30.26,SE,135,3.0,5.0,61,0.00,,,0.00,TxWx,2013-04-23 21:27:00,
2013-04-23 17:28:00,40.0,38.0,30.09,East,90,0.0,0.0,94,0.00,,,0.00,TxWx,2013-04-23 21:28:00,
2013-04-23 17:29:00,40.0,38.0,30.10,East,90,0.0,0.0,94,0.00,,,0.00,TxWx,2013-04-23 21:29:00,
2013-04-23 17:30:00,40.0,38.0,30.10,East,90,0.0,0.0,94,0.00,,,0.00,TxWx,2013-04-23 21:30:00,
2013-04-23 17:32:00,53.0,40.0,30.26,East,90,6.0,7.0,61,0.00,,,0.00,TxWx,2013-04-23 21:32:00,
2013-04-23 17:37:00,53.0,40.0,30.26,ENE,67,4.0,6.0,62,0.00,,,0.00,TxWx,2013-04-23 21:37:00,
2013-04-23 17:42:00,53.0,40.0,30.25,SSE,157,5.0,7.0,62,0.00,,,0.00,TxWx,2013-04-23 21:42:00,
2013-04-23 17:47:00,53.0,40.0,30.25,South,180,6.0,8.0,61,0.00,,,0.00,TxWx,2013-04-23 21:47:00,
2013-04-23 17:52:00,53.0,40.0,30.25,ESE,112,3.0,6.0,61,0.00,,,0.00,TxWx,2013-04-23 21:52:00,
2013-04-23 17:57:00,53.0,40.0,30.24,SSE,157,3.0,4.0,61,0.00,,,0.00,TxWx,2013-04-23 21:57:00,
2013-04-23 18:02:00,53.0,40.0,30.24,SSE,157,3.0,3.0,61,0.00,,,0.00,TxWx,2013-04-23 22:02:00,
2013-04-23 18:08:00,53.0,40.0,30.23,ESE,112,4.0,5.0,62,0.00,,,0.00,TxWx,2013-04-23 22:08:00,
2013-04-23 18:13:00,54.0,41.0,30.22,ESE,112,2.0,3.0,62,0.00,,,0.00,TxWx,2013-04-23 22:13:00,
2013-04-23 18:18:00,53.0,40.0,30.21,ESE,112,10.0,10.0,62,0.00,,,0.00,TxWx,2013-04-23 22:18:00,
2013-04-23 18:23:00,53.0,40.0,30.21,ESE,112,6.0,6.0,62,0.00,,,0.00,TxWx,2013-04-23 22:23:00,
2013-04-23 18:28:00,53.0,40.0,30.21,SE,135,4.0,6.0,62,0.00,,,0.00,TxWx,2013-04-23 22:28:00,
2013-04-23 18:33:00,53.0,40.0,30.20,East,90,5.0,6.0,62,0.00,,,0.00,TxWx,2013-04-23 22:33:00,
2013-04-23 18:38:00,53.0,41.0,30.20,SSE,157,6.0,8.0,63,0.00,,,0.00,TxWx,2013-04-23 22:38:00,
2013-04-23 18:43:00,53.0,41.0,30.21,ESE,112,2.0,2.0,63,0.00,,,0.00,TxWx,2013-04-23 22:43:00,
2013-04-23 18:48:00,54.0,41.0,30.21,South,180,2.0,4.0,63,0.00,,,0.00,TxWx,2013-04-23 22:48:00,
2013-04-23 18:53:00,54.0,41.0,30.21,ESE,112,4.0,4.0,62,0.00,,,0.00,TxWx,2013-04-23 22:53:00,
2013-04-23 18:58:00,53.0,40.0,30.21,South,180,5.0,5.0,62,0.00,,,0.00,TxWx,2013-04-23 22:58:00,
2013-04-23 19:03:00,54.0,41.0,30.22,South,180,6.0,6.0,63,0.00,,,0.00,TxWx,2013-04-23 23:03:00,
2013-04-23 19:08:00,53.0,41.0,30.21,SW,225,5.0,6.0,63,0.00,,,0.00,TxWx,2013-04-23 23:08:00,
2013-04-23 19:13:00,53.0,41.0,30.21,SSE,157,5.0,5.0,63,0.00,,,0.00,TxWx,2013-04-23 23:13:00,
2013-04-23 19:18:00,53.0,41.0,30.21,ESE,112,3.0,3.0,63,0.00,,,0.00,TxWx,2013-04-23 23:18:00,
2013-04-23 19:24:00,53.0,41.0,30.21,South,180,4.0,6.0,64,0.00,,,0.00,TxWx,2013-04-23 23:24:00,
2013-04-23 19:29:00,53.0,41.0,30.21,South,180,6.0,7.0,64,0.00,,,0.00,TxWx,2013-04-23 23:29:00,
2013-04-23 19:34:00,53.0,41.0,30.21,SSW,202,5.0,6.0,64,0.00,,,0.00,TxWx,2013-04-23 23:34:00,
2013-04-23 19:39:00,53.0,41.0,30.21,South,180,5.0,5.0,64,0.00,,,0.00,TxWx,2013-04-23 23:39:00,
2013-04-23 19:44:00,53.0,41.0,30.21,SSE,157,3.0,5.0,65,0.00,,,0.00,TxWx,2013-04-23 23:44:00,
2013-04-23 19:49:00,53.0,41.0,30.22,SSE,157,7.0,7.0,65,0.00,,,0.00,TxWx,2013-04-23 23:49:00,
2013-04-23 19:54:00,53.0,41.0,30.22,SSW,202,6.0,7.0,65,0.00,,,0.00,TxWx,2013-04-23 23:54:00,
2013-04-23 19:59:00,53.0,42.0,30.22,SSE,157,3.0,5.0,65,0.00,,,0.00,TxWx,2013-04-23 23:59:00,
2013-04-23 20:04:00,53.0,42.0,30.21,ESE,112,4.0,4.0,65,0.00,,,0.00,TxWx,2013-04-24 00:04:00,
2013-04-23 20:09:00,53.0,42.0,30.21,South,180,3.0,5.0,65,0.00,,,0.00,TxWx,2013-04-24 00:09:00,
2013-04-23 20:14:00,53.0,42.0,30.21,SSE,157,4.0,4.0,66,0.00,,,0.00,TxWx,2013-04-24 00:14:00,
2013-04-23 20:19:00,52.0,42.0,30.20,ESE,112,3.0,5.0,66,0.00,,,0.00,TxWx,2013-04-24 00:19:00,
2013-04-23 20:24:00,52.0,41.0,30.20,ESE,112,8.0,8.0,66,0.00,,,0.00,TxWx,2013-04-24 00:24:00,
2013-04-23 20:29:00,52.0,41.0,30.19,SE,135,3.0,3.0,67,0.00,,,0.00,TxWx,2013-04-24 00:29:00,
2013-04-23 20:34:00,52.0,41.0,30.19,SSE,157,5.0,6.0,67,0.00,,,0.00,TxWx,2013-04-24 00:34:00,
2013-04-23 20:39:00,52.0,42.0,30.19,ESE,112,4.0,4.0,68,0.00,,,0.00,TxWx,2013-04-24 00:39:00,
2013-04-23 20:44:00,52.0,42.0,30.19,East,90,3.0,4.0,68,0.00,,,0.00,TxWx,2013-04-24 00:44:00,
2013-04-23 20:50:00,52.0,42.0,30.19,ESE,112,3.0,3.0,69,0.00,,,0.00,TxWx,2013-04-24 00:50:00,
2013-04-23 20:55:00,51.0,41.0,30.18,ESE,112,0.0,1.0,69,0.00,,,0.00,TxWx,2013-04-24 00:55:00,
2013-04-23 21:00:00,51.0,41.0,30.18,East,90,1.0,3.0,69,0.00,,,0.00,TxWx,2013-04-24 01:00:00,
2013-04-23 21:05:00,51.0,41.0,30.18,ESE,112,4.0,4.0,70,0.00,,,0.00,TxWx,2013-04-24 01:05:00,
2013-04-23 21:10:00,51.0,42.0,30.18,ESE,112,1.0,1.0,70,0.00,,,0.00,TxWx,2013-04-24 01:10:00,
2013-04-23 21:15:00,51.0,42.0,30.18,SE,135,0.0,1.0,70,0.00,,,0.00,TxWx,2013-04-24 01:15:00,
2013-04-23 21:20:00,51.0,42.0,30.17,SSE,157,1.0,2.0,71,0.00,,,0.00,TxWx,2013-04-24 01:20:00,
2013-04-23 21:25:00,50.0,41.0,30.17,SE,135,0.0,1.0,71,0.00,,,0.00,TxWx,2013-04-24 01:25:00,
2013-04-23 21:30:00,50.0,41.0,30.17,SE,135,0.0,1.0,71,0.00,,,0.00,TxWx,2013-04-24 01:30:00,
2013-04-23 21:35:00,50.0,41.0,30.16,SE,135,0.0,1.0,72,0.00,,,0.00,TxWx,2013-04-24 01:35:00,
2013-04-23 21:40:00,50.0,41.0,30.17,SE,135,0.0,0.0,72,0.00,,,0.00,TxWx,2013-04-24 01:40:00,
2013-04-23 21:45:00,50.0,41.0,30.17,SSW,202,3.0,3.0,73,0.00,,,0.00,TxWx,2013-04-24 01:45:00,
2013-04-23 21:50:00,49.0,41.0,30.16,South,180,3.0,3.0,74,0.00,,,0.00,TxWx,2013-04-24 01:50:00,
2013-04-23 21:55:00,49.0,41.0,30.16,SW,225,3.0,3.0,74,0.00,,,0.00,TxWx,2013-04-24 01:55:00,
2013-04-23 22:00:00,49.0,41.0,30.16,SW,225,3.0,3.0,75,0.00,,,0.00,TxWx,2013-04-24 02:00:00,
2013-04-23 22:06:00,49.0,41.0,30.16,West,270,3.0,3.0,75,0.00,,,0.00,TxWx,2013-04-24 02:06:00,
2013-04-23 22:11:00,48.0,41.0,30.16,SSE,157,0.0,1.0,76,0.00,,,0.00,TxWx,2013-04-24 02:11:00,
2013-04-23 22:16:00,48.0,41.0,30.16,West,270,3.0,4.0,76,0.00,,,0.00,TxWx,2013-04-24 02:16:00,
2013-04-23 22:21:00,47.0,40.0,30.16,WSW,247,3.0,4.0,77,0.00,,,0.00,TxWx,2013-04-24 02:21:00,
2013-04-23 22:26:00,47.0,40.0,30.16,SW,225,3.0,3.0,78,0.00,,,0.00,TxWx,2013-04-24 02:26:00,
2013-04-23 22:31:00,48.0,42.0,30.16,SSW,202,3.0,3.0,79,0.00,,,0.00,TxWx,2013-04-24 02:31:00,
2013-04-23 22:36:00,48.0,42.0,30.16,SSW,202,3.0,3.0,79,0.00,,,0.00,TxWx,2013-04-24 02:36:00,
2013-04-23 22:41:00,48.0,42.0,30.16,SSW,202,3.0,3.0,79,0.00,,,0.00,TxWx,2013-04-24 02:41:00,
2013-04-23 22:46:00,48.0,41.0,30.16,SSW,202,2.0,3.0,78,0.00,,,0.00,TxWx,2013-04-24 02:46:00,
2013-04-23 22:51:00,48.0,41.0,30.16,WSW,247,2.0,2.0,78,0.00,,,0.00,TxWx,2013-04-24 02:51:00,
2013-04-23 22:56:00,48.0,41.0,30.16,SSW,202,3.0,3.0,78,0.00,,,0.00,TxWx,2013-04-24 02:56:00,
2013-04-23 23:01:00,48.0,42.0,30.16,South,180,0.0,0.0,79,0.00,,,0.00,TxWx,2013-04-24 03:01:00,
2013-04-23 23:06:00,47.0,41.0,30.16,South,180,0.0,0.0,79,0.00,,,0.00,TxWx,2013-04-24 03:06:00,
2013-04-23 23:11:00,47.0,41.0,30.16,ESE,112,0.0,0.0,79,0.00,,,0.00,TxWx,2013-04-24 03:11:00,
2013-04-23 23:17:00,47.0,41.0,30.16,SE,135,0.0,0.0,79,0.00,,,0.00,TxWx,2013-04-24 03:17:00,
2013-04-23 23:22:00,47.0,41.0,30.15,East,90,0.0,0.0,80,0.00,,,0.00,TxWx,2013-04-24 03:22:00,
2013-04-23 23:27:00,46.0,40.0,30.15,ESE,112,1.0,1.0,80,0.00,,,0.00,TxWx,2013-04-24 03:27:00,
2013-04-23 23:32:00,46.0,40.0,30.15,ESE,112,0.0,0.0,80,0.00,,,0.00,TxWx,2013-04-24 03:32:00,
2013-04-23 23:37:00,46.0,40.0,30.15,ENE,67,0.0,0.0,81,0.00,,,0.00,TxWx,2013-04-24 03:37:00,
2013-04-23 23:42:00,45.0,40.0,30.15,East,90,0.0,0.0,81,0.00,,,0.00,TxWx,2013-04-24 03:42:00,
2013-04-23 23:50:00,45.0,40.0,30.14,East,90,1.0,1.0,82,0.00,,,0.00,TxWx,2013-04-24 03:50:00,
2013-04-23 23:55:00,45.0,40.0,30.14,West,270,0.0,0.0,83,0.00,,,0.00,TxWx,2013-04-24 03:55:00,